sensor_id;sensor_type;location;lat;lon;timestamp;pressure;altitude;pressure_sealevel;temperature;humidity
51849;BME280;38952;51.090;-1.832;2023-03-25T00:01:25;98797.84;;;5.57;100.00
51849;BME280;38952;51.090;-1.832;2023-03-25T00:03:53;98802.75;;;5.55;100.00
51849;BME280;38952;51.090;-1.832;2023-03-25T00:06:19;98824.97;;;5.62;100.00
51849;BME280;38952;51.090;-1.832;2023-03-25T00:08:45;98826.63;;;5.58;100.00
51849;BME280;38952;51.090;-1.832;2023-03-25T00:11:10;98809.22;;;5.59;100.00
51849;BME280;38952;51.090;-1.832;2023-03-25T00:13:36;98822.78;;;5.69;100.00
51849;BME280;38952;51.090;-1.832;2023-03-25T00:16:02;98838.00;;;5.75;100.00
51849;BME280;38952;51.090;-1.832;2023-03-25T00:18:29;98833.91;;;5.73;100.00
51849;BME280;38952;51.090;-1.832;2023-03-25T00:20:58;98844.22;;;5.71;100.00
51849;BME280;38952;51.090;-1.832;2023-03-25T00:23:24;98855.34;;;5.69;100.00
51849;BME280;38952;51.090;-1.832;2023-03-25T00:25:50;98849.38;;;5.67;100.00
51849;BME280;38952;51.090;-1.832;2023-03-25T00:28:17;98843.94;;;5.62;100.00
51849;BME280;38952;51.090;-1.832;2023-03-25T00:30:43;98853.72;;;5.68;100.00
51849;BME280;38952;51.090;-1.832;2023-03-25T00:33:10;98868.88;;;5.80;100.00
51849;BME280;38952;51.090;-1.832;2023-03-25T00:35:36;98856.13;;;5.90;100.00
51849;BME280;38952;51.090;-1.832;2023-03-25T00:38:04;98856.94;;;5.96;100.00
51849;BME280;38952;51.090;-1.832;2023-03-25T00:40:32;98850.69;;;5.95;100.00
51849;BME280;38952;51.090;-1.832;2023-03-25T00:43:01;98849.91;;;5.90;100.00
51849;BME280;38952;51.090;-1.832;2023-03-25T00:45:27;98859.94;;;5.84;100.00
51849;BME280;38952;51.090;-1.832;2023-03-25T00:47:53;98853.72;;;5.79;100.00
51849;BME280;38952;51.090;-1.832;2023-03-25T00:50:19;98866.19;;;5.85;100.00
51849;BME280;38952;51.090;-1.832;2023-03-25T00:52:46;98860.75;;;5.80;100.00
51849;BME280;38952;51.090;-1.832;2023-03-25T00:55:12;98861.84;;;5.73;100.00
51849;BME280;38952;51.090;-1.832;2023-03-25T00:57:37;98860.75;;;5.80;100.00
51849;BME280;38952;51.090;-1.832;2023-03-25T01:00:09;98854.25;;;5.75;100.00
51849;BME280;38952;51.090;-1.832;2023-03-25T01:02:35;98860.75;;;5.80;100.00
51849;BME280;38952;51.090;-1.832;2023-03-25T01:05:03;98857.50;;;5.77;100.00
51849;BME280;38952;51.090;-1.832;2023-03-25T01:07:29;98863.47;;;5.74;100.00
51849;BME280;38952;51.090;-1.832;2023-03-25T01:09:56;98864.84;;;5.77;100.00
51849;BME280;38952;51.090;-1.832;2023-03-25T01:12:23;98870.78;;;5.79;100.00
51849;BME280;38952;51.090;-1.832;2023-03-25T01:14:49;98868.34;;;5.77;100.00
51849;BME280;38952;51.090;-1.832;2023-03-25T01:17:22;98862.41;;;5.75;100.00
51849;BME280;38952;51.090;-1.832;2023-03-25T01:19:47;98874.06;;;5.81;100.00
51849;BME280;38952;51.090;-1.832;2023-03-25T01:22:13;98868.34;;;5.77;100.00
51849;BME280;38952;51.090;-1.832;2023-03-25T01:24:38;98863.72;;;5.78;100.00
51849;BME280;38952;51.090;-1.832;2023-03-25T01:27:04;98870.78;;;5.79;100.00
51849;BME280;38952;51.090;-1.832;2023-03-25T01:29:30;98871.06;;;5.83;100.00
51849;BME280;38952;51.090;-1.832;2023-03-25T01:31:56;98870.25;;;5.82;100.00
51849;BME280;38952;51.090;-1.832;2023-03-25T01:34:22;98878.09;;;5.84;100.00
51849;BME280;38952;51.090;-1.832;2023-03-25T01:36:47;98881.91;;;5.93;100.00
51849;BME280;38952;51.090;-1.832;2023-03-25T01:39:15;98885.72;;;6.07;100.00
51849;BME280;38952;51.090;-1.832;2023-03-25T01:41:44;98880.25;;;6.23;100.00
51849;BME280;38952;51.090;-1.832;2023-03-25T01:46:38;98887.53;;;6.43;100.00
51849;BME280;38952;51.090;-1.832;2023-03-25T01:49:11;98887.22;;;6.50;100.00
51849;BME280;38952;51.090;-1.832;2023-03-25T01:51:41;98875.81;;;6.58;100.00
51849;BME280;38952;51.090;-1.832;2023-03-25T01:54:09;98878.75;;;6.67;100.00
51849;BME280;38952;51.090;-1.832;2023-03-25T01:56:39;98889.63;;;6.67;100.00
51849;BME280;38952;51.090;-1.832;2023-03-25T01:59:07;98878.03;;;6.45;100.00
51849;BME280;38952;51.090;-1.832;2023-03-25T02:01:33;98899.78;;;6.35;100.00
51849;BME280;38952;51.090;-1.832;2023-03-25T02:03:59;98898.72;;;6.26;100.00
51849;BME280;38952;51.090;-1.832;2023-03-25T02:06:45;98878.91;;;6.25;100.00
51849;BME280;38952;51.090;-1.832;2023-03-25T02:09:17;98873.72;;;6.29;100.00
51849;BME280;38952;51.090;-1.832;2023-03-25T02:11:44;98879.72;;;6.26;100.00
51849;BME280;38952;51.090;-1.832;2023-03-25T02:14:13;98878.66;;;6.17;100.00
51849;BME280;38952;51.090;-1.832;2023-03-25T02:19:46;98887.34;;;6.14;100.00
51849;BME280;38952;51.090;-1.832;2023-03-25T02:39:31;98898.22;;;6.03;100.00
51849;BME280;38952;51.090;-1.832;2023-03-25T02:42:12;98896.03;;;6.05;100.00
51849;BME280;38952;51.090;-1.832;2023-03-25T02:44:47;98890.06;;;6.14;100.00
51849;BME280;38952;51.090;-1.832;2023-03-25T02:47:18;98900.34;;;6.22;100.00
51849;BME280;38952;51.090;-1.832;2023-03-25T02:49:54;98904.13;;;6.26;100.00
51849;BME280;38952;51.090;-1.832;2023-03-25T02:55:18;98893.31;;;6.10;100.00
51849;BME280;38952;51.090;-1.832;2023-03-25T02:57:47;98908.78;;;6.10;100.00
51849;BME280;38952;51.090;-1.832;2023-03-25T03:00:16;98909.59;;;6.05;100.00
51849;BME280;38952;51.090;-1.832;2023-03-25T03:02:57;98909.31;;;6.07;100.00
51849;BME280;38952;51.090;-1.832;2023-03-25T03:05:29;98908.25;;;6.08;100.00
51849;BME280;38952;51.090;-1.832;2023-03-25T03:10:41;98903.38;;;6.05;100.00
51849;BME280;38952;51.090;-1.832;2023-03-25T03:21:27;98910.13;;;5.97;100.00
51849;BME280;38952;51.090;-1.832;2023-03-25T03:24:26;98912.31;;;6.05;100.00
51849;BME280;38952;51.090;-1.832;2023-03-25T03:26:59;98910.97;;;6.08;100.00
51849;BME280;38952;51.090;-1.832;2023-03-25T03:32:10;98926.97;;;6.04;100.00
51849;BME280;38952;51.090;-1.832;2023-03-25T03:34:47;98923.72;;;6.02;100.00
51849;BME280;38952;51.090;-1.832;2023-03-25T03:37:26;98929.13;;;6.07;100.00
51849;BME280;38952;51.090;-1.832;2023-03-25T03:39:54;98920.72;;;6.14;100.00
51849;BME280;38952;51.090;-1.832;2023-03-25T03:42:36;98921.50;;;6.25;100.00
51849;BME280;38952;51.090;-1.832;2023-03-25T03:45:12;98948.63;;;6.40;100.00
51849;BME280;38952;51.090;-1.832;2023-03-25T03:47:44;98925.81;;;6.52;100.00
51849;BME280;38952;51.090;-1.832;2023-03-25T03:50:16;98938.28;;;6.63;100.00
51849;BME280;38952;51.090;-1.832;2023-03-25T03:52:50;98924.16;;;6.61;100.00
51849;BME280;38952;51.090;-1.832;2023-03-25T03:55:24;98939.09;;;6.58;100.00
51849;BME280;38952;51.090;-1.832;2023-03-25T03:58:00;98925.25;;;6.55;100.00
51849;BME280;38952;51.090;-1.832;2023-03-25T04:00:32;98941.03;;;6.47;100.00
51849;BME280;38952;51.090;-1.832;2023-03-25T04:03:12;98929.63;;;6.40;100.00
51849;BME280;38952;51.090;-1.832;2023-03-25T04:05:47;98942.91;;;6.52;100.00
51849;BME280;38952;51.090;-1.832;2023-03-25T04:08:33;98949.66;;;6.70;100.00
51849;BME280;38952;51.090;-1.832;2023-03-25T04:11:04;98945.25;;;6.85;100.00
51849;BME280;38952;51.090;-1.832;2023-03-25T04:13:35;98944.69;;;6.88;100.00
51849;BME280;38952;51.090;-1.832;2023-03-25T04:16:03;98941.50;;;6.75;100.00
51849;BME280;38952;51.090;-1.832;2023-03-25T04:18:29;98943.97;;;6.67;100.00
51849;BME280;38952;51.090;-1.832;2023-03-25T04:20:58;98945.63;;;6.57;100.00
51849;BME280;38952;51.090;-1.832;2023-03-25T04:23:25;98949.69;;;6.50;100.00
51849;BME280;38952;51.090;-1.832;2023-03-25T04:25:54;98951.88;;;6.47;100.00
51849;BME280;38952;51.090;-1.832;2023-03-25T04:28:20;98947.84;;;6.40;100.00
51849;BME280;38952;51.090;-1.832;2023-03-25T04:30:46;98954.06;;;6.40;100.00
51849;BME280;38952;51.090;-1.832;2023-03-25T04:33:13;98950.56;;;6.40;100.00
51849;BME280;38952;51.090;-1.832;2023-03-25T04:35:39;98953.53;;;6.38;100.00
51849;BME280;38952;51.090;-1.832;2023-03-25T04:38:05;98963.84;;;6.36;100.00
51849;BME280;38952;51.090;-1.832;2023-03-25T04:40:31;98956.25;;;6.33;100.00
51849;BME280;38952;51.090;-1.832;2023-03-25T04:42:57;98965.75;;;6.36;100.00
51849;BME280;38952;51.090;-1.832;2023-03-25T04:45:23;98963.31;;;6.34;100.00
51849;BME280;38952;51.090;-1.832;2023-03-25T04:47:50;98966.03;;;6.29;100.00
51849;BME280;38952;51.090;-1.832;2023-03-25T04:50:25;98982.88;;;6.26;100.00
51849;BME280;38952;51.090;-1.832;2023-03-25T04:52:51;98971.47;;;6.29;100.00
51849;BME280;38952;51.090;-1.832;2023-03-25T04:55:22;98970.91;;;6.32;100.00
51849;BME280;38952;51.090;-1.832;2023-03-25T04:57:49;98968.75;;;6.29;100.00
51849;BME280;38952;51.090;-1.832;2023-03-25T05:00:17;98976.88;;;6.29;100.00
51849;BME280;38952;51.090;-1.832;2023-03-25T05:02:47;98973.63;;;6.22;100.00
51849;BME280;38952;51.090;-1.832;2023-03-25T05:05:23;98979.63;;;6.24;100.00
51849;BME280;38952;51.090;-1.832;2023-03-25T05:07:51;98979.59;;;6.29;100.00
51849;BME280;38952;51.090;-1.832;2023-03-25T05:10:22;98981.22;;;6.25;100.00
51849;BME280;38952;51.090;-1.832;2023-03-25T05:12:57;99000.25;;;6.30;100.00
51849;BME280;38952;51.090;-1.832;2023-03-25T05:15:23;99002.41;;;6.33;100.00
51849;BME280;38952;51.090;-1.832;2023-03-25T05:17:48;98996.44;;;6.36;100.00
51849;BME280;38952;51.090;-1.832;2023-03-25T05:20:22;99005.94;;;6.44;100.00
51849;BME280;38952;51.090;-1.832;2023-03-25T05:22:48;98995.59;;;6.41;100.00
51849;BME280;38952;51.090;-1.832;2023-03-25T05:25:17;99010.28;;;6.50;100.00
51849;BME280;38952;51.090;-1.832;2023-03-25T05:27:46;99018.16;;;6.41;100.00
51849;BME280;38952;51.090;-1.832;2023-03-25T05:30:14;99021.41;;;6.33;100.00
51849;BME280;38952;51.090;-1.832;2023-03-25T05:32:40;99027.38;;;6.30;100.00
51849;BME280;38952;51.090;-1.832;2023-03-25T05:35:09;99031.19;;;6.19;100.00
51849;BME280;38952;51.090;-1.832;2023-03-25T05:37:35;99017.34;;;6.05;100.00
51849;BME280;38952;51.090;-1.832;2023-03-25T05:40:02;99013.81;;;6.04;100.00
51849;BME280;38952;51.090;-1.832;2023-03-25T05:42:28;99026.03;;;6.02;100.00
51849;BME280;38952;51.090;-1.832;2023-03-25T05:44:53;99029.78;;;5.95;100.00
51849;BME280;38952;51.090;-1.832;2023-03-25T05:47:20;99016.75;;;5.92;100.00
51849;BME280;38952;51.090;-1.832;2023-03-25T05:49:50;99023.81;;;5.93;100.00
51849;BME280;38952;51.090;-1.832;2023-03-25T05:52:17;99035.78;;;5.98;100.00
51849;BME280;38952;51.090;-1.832;2023-03-25T05:54:44;99026.81;;;5.92;100.00
51849;BME280;38952;51.090;-1.832;2023-03-25T05:57:11;99009.94;;;5.80;100.00
51849;BME280;38952;51.090;-1.832;2023-03-25T05:59:39;99033.63;;;6.00;100.00
51849;BME280;38952;51.090;-1.832;2023-03-25T06:02:11;99034.72;;;6.04;100.00
51849;BME280;38952;51.090;-1.832;2023-03-25T06:04:37;99039.88;;;6.05;100.00
51849;BME280;38952;51.090;-1.832;2023-03-25T06:07:12;99040.97;;;6.09;100.00
51849;BME280;38952;51.090;-1.832;2023-03-25T06:09:46;99045.84;;;6.23;100.00
51849;BME280;38952;51.090;-1.832;2023-03-25T06:12:17;99058.06;;;6.25;100.00
51849;BME280;38952;51.090;-1.832;2023-03-25T06:14:44;99055.34;;;6.31;100.00
51849;BME280;38952;51.090;-1.832;2023-03-25T06:17:15;99050.72;;;6.36;100.00
51849;BME280;38952;51.090;-1.832;2023-03-25T06:19:43;99057.78;;;6.42;100.00
51849;BME280;38952;51.090;-1.832;2023-03-25T06:22:10;99058.34;;;6.55;100.00
51849;BME280;38952;51.090;-1.832;2023-03-25T06:24:36;99069.19;;;6.75;100.00
51849;BME280;38952;51.090;-1.832;2023-03-25T06:27:07;99083.84;;;6.90;100.00
51849;BME280;38952;51.090;-1.832;2023-03-25T06:29:34;99082.19;;;6.94;100.00
51849;BME280;38952;51.090;-1.832;2023-03-25T06:32:02;99084.06;;;7.04;100.00
51849;BME280;38952;51.090;-1.832;2023-03-25T06:34:28;99090.59;;;7.13;100.00
51849;BME280;38952;51.090;-1.832;2023-03-25T06:36:56;99081.56;;;7.23;100.00
51849;BME280;38952;51.090;-1.832;2023-03-25T06:39:21;99087.00;;;7.23;100.00
51849;BME280;38952;51.090;-1.832;2023-03-25T06:41:47;99088.09;;;7.32;100.00
51849;BME280;38952;51.090;-1.832;2023-03-25T06:44:12;99091.31;;;7.34;100.00
51849;BME280;38952;51.090;-1.832;2023-03-25T06:46:38;99094.84;;;7.45;100.00
51849;BME280;38952;51.090;-1.832;2023-03-25T06:49:03;99085.91;;;7.29;100.00
51849;BME280;38952;51.090;-1.832;2023-03-25T06:51:29;99095.16;;;7.28;100.00
51849;BME280;38952;51.090;-1.832;2023-03-25T06:53:54;99112.03;;;7.25;100.00
51849;BME280;38952;51.090;-1.832;2023-03-25T06:56:29;99096.22;;;7.42;100.00
51849;BME280;38952;51.090;-1.832;2023-03-25T06:58:55;99096.75;;;7.39;100.00
51849;BME280;38952;51.090;-1.832;2023-03-25T07:01:20;99108.19;;;7.36;100.00
51849;BME280;38952;51.090;-1.832;2023-03-25T07:03:46;99112.53;;;7.42;100.00
51849;BME280;38952;51.090;-1.832;2023-03-25T07:06:19;99128.72;;;7.73;100.00
51849;BME280;38952;51.090;-1.832;2023-03-25T07:08:46;99123.75;;;7.91;100.00
51849;BME280;38952;51.090;-1.832;2023-03-25T07:11:13;99138.44;;;7.95;100.00
51849;BME280;38952;51.090;-1.832;2023-03-25T07:13:38;99128.94;;;7.87;98.72
51849;BME280;38952;51.090;-1.832;2023-03-25T07:16:04;99132.28;;;7.68;99.30
51849;BME280;38952;51.090;-1.832;2023-03-25T07:18:30;99134.41;;;7.87;100.00
51849;BME280;38952;51.090;-1.832;2023-03-25T07:20:56;99145.47;;;8.01;98.34
51849;BME280;38952;51.090;-1.832;2023-03-25T07:23:21;99138.56;;;8.19;99.95
51849;BME280;38952;51.090;-1.832;2023-03-25T07:25:47;99146.13;;;8.27;98.69
51849;BME280;38952;51.090;-1.832;2023-03-25T07:28:12;99146.44;;;8.26;98.99
51849;BME280;38952;51.090;-1.832;2023-03-25T07:30:38;99152.78;;;8.06;99.25
51849;BME280;38952;51.090;-1.832;2023-03-25T07:33:07;99161.25;;;8.04;98.25
51849;BME280;38952;51.090;-1.832;2023-03-25T07:35:32;99148.25;;;7.85;98.60
51849;BME280;38952;51.090;-1.832;2023-03-25T07:37:58;99168.09;;;7.91;99.96
51849;BME280;38952;51.090;-1.832;2023-03-25T07:40:24;99154.44;;;8.07;100.00
51849;BME280;38952;51.090;-1.832;2023-03-25T07:42:49;99165.22;;;8.27;100.00
51849;BME280;38952;51.090;-1.832;2023-03-25T07:45:22;99177.84;;;8.58;98.48
51849;BME280;38952;51.090;-1.832;2023-03-25T07:47:48;99183.75;;;8.70;97.80
51849;BME280;38952;51.090;-1.832;2023-03-25T07:50:28;99161.22;;;8.59;96.58
51849;BME280;38952;51.090;-1.832;2023-03-25T07:53:03;99159.34;;;8.54;96.84
51849;BME280;38952;51.090;-1.832;2023-03-25T07:55:28;99168.63;;;8.88;95.95
51849;BME280;38952;51.090;-1.832;2023-03-25T07:57:54;99213.47;;;9.06;94.42
51849;BME280;38952;51.090;-1.832;2023-03-25T08:00:23;99192.88;;;8.89;95.57
51849;BME280;38952;51.090;-1.832;2023-03-25T08:02:48;99199.31;;;9.04;96.04
51849;BME280;38952;51.090;-1.832;2023-03-25T08:05:14;99216.06;;;9.21;95.30
51849;BME280;38952;51.090;-1.832;2023-03-25T08:07:50;99208.88;;;9.31;93.72
51849;BME280;38952;51.090;-1.832;2023-03-25T08:10:16;99211.63;;;9.55;93.10
51849;BME280;38952;51.090;-1.832;2023-03-25T08:12:44;99222.72;;;9.64;91.48
51849;BME280;38952;51.090;-1.832;2023-03-25T08:15:10;99223.22;;;9.71;91.11
51849;BME280;38952;51.090;-1.832;2023-03-25T08:17:39;99237.16;;;9.93;91.75
51849;BME280;38952;51.090;-1.832;2023-03-25T08:20:07;99223.56;;;10.37;87.96
51849;BME280;38952;51.090;-1.832;2023-03-25T08:22:33;99218.72;;;10.28;87.01
51849;BME280;38952;51.090;-1.832;2023-03-25T08:24:58;99238.94;;;10.71;88.94
51849;BME280;38952;51.090;-1.832;2023-03-25T08:27:24;99241.91;;;11.73;82.71
51849;BME280;38952;51.090;-1.832;2023-03-25T08:29:50;99252.19;;;11.95;79.46
51849;BME280;38952;51.090;-1.832;2023-03-25T08:32:30;99246.75;;;11.62;80.57
51849;BME280;38952;51.090;-1.832;2023-03-25T08:35:00;99241.78;;;11.17;82.04
51849;BME280;38952;51.090;-1.832;2023-03-25T08:37:28;99248.69;;;10.77;83.11
51849;BME280;38952;51.090;-1.832;2023-03-25T08:39:54;99259.78;;;10.67;85.08
51849;BME280;38952;51.090;-1.832;2023-03-25T08:42:20;99260.69;;;11.14;84.20
51849;BME280;38952;51.090;-1.832;2023-03-25T08:44:48;99252.44;;;11.00;82.65
51849;BME280;38952;51.090;-1.832;2023-03-25T08:47:13;99272.34;;;11.06;85.50
51849;BME280;38952;51.090;-1.832;2023-03-25T08:49:39;99270.69;;;11.05;84.71
51849;BME280;38952;51.090;-1.832;2023-03-25T08:52:04;99272.25;;;10.92;83.82
51849;BME280;38952;51.090;-1.832;2023-03-25T08:54:32;99282.59;;;10.57;86.20
51849;BME280;38952;51.090;-1.832;2023-03-25T08:57:00;99286.78;;;10.49;86.73
51849;BME280;38952;51.090;-1.832;2023-03-25T08:59:29;99292.94;;;10.60;87.54
51849;BME280;38952;51.090;-1.832;2023-03-25T09:02:03;99295.97;;;10.96;86.00
51849;BME280;38952;51.090;-1.832;2023-03-25T09:04:34;99311.66;;;11.10;85.08
51849;BME280;38952;51.090;-1.832;2023-03-25T09:07:00;99305.59;;;11.13;84.35
51849;BME280;38952;51.090;-1.832;2023-03-25T09:09:25;99308.31;;;11.32;84.44
51849;BME280;38952;51.090;-1.832;2023-03-25T09:11:56;99314.31;;;11.81;81.58
51849;BME280;38952;51.090;-1.832;2023-03-25T09:14:21;99303.72;;;11.60;79.94
51849;BME280;38952;51.090;-1.832;2023-03-25T09:16:46;99324.53;;;11.61;81.74
51849;BME280;38952;51.090;-1.832;2023-03-25T09:19:20;99325.81;;;11.50;82.48
51849;BME280;38952;51.090;-1.832;2023-03-25T09:21:47;99313.00;;;11.78;82.00
51849;BME280;38952;51.090;-1.832;2023-03-25T09:24:13;99328.22;;;12.31;77.11
51849;BME280;38952;51.090;-1.832;2023-03-25T09:26:38;99314.19;;;12.19;76.74
51849;BME280;38952;51.090;-1.832;2023-03-25T09:29:04;99319.78;;;12.14;78.83
51849;BME280;38952;51.090;-1.832;2023-03-25T09:31:29;99344.16;;;12.29;78.46
51849;BME280;38952;51.090;-1.832;2023-03-25T09:33:55;99322.91;;;12.77;77.36
51849;BME280;38952;51.090;-1.832;2023-03-25T09:36:20;99336.88;;;13.03;75.99
51849;BME280;38952;51.090;-1.832;2023-03-25T09:38:48;99340.34;;;13.99;73.49
51849;BME280;38952;51.090;-1.832;2023-03-25T09:44:51;99343.94;;;13.18;72.14
51849;BME280;38952;51.090;-1.832;2023-03-25T09:46:50;99353.31;;;12.38;75.01
51849;BME280;38952;51.090;-1.832;2023-03-25T09:49:22;99355.19;;;11.96;77.31
51849;BME280;38952;51.090;-1.832;2023-03-25T09:51:55;99365.34;;;12.10;77.64
51849;BME280;38952;51.090;-1.832;2023-03-25T09:54:26;99369.94;;;12.28;78.24
51849;BME280;38952;51.090;-1.832;2023-03-25T09:56:56;99382.63;;;12.24;77.69
51849;BME280;38952;51.090;-1.832;2023-03-25T09:59:40;99367.16;;;12.00;77.37
51849;BME280;38952;51.090;-1.832;2023-03-25T10:02:26;99390.94;;;12.05;78.55
51849;BME280;38952;51.090;-1.832;2023-03-25T10:05:18;99403.28;;;12.35;78.39
51849;BME280;38952;51.090;-1.832;2023-03-25T10:11:04;99415.50;;;11.91;78.66
51849;BME280;38952;51.090;-1.832;2023-03-25T10:13:49;99405.91;;;11.75;79.23
51849;BME280;38952;51.090;-1.832;2023-03-25T10:19:08;99428.56;;;15.49;71.59
51849;BME280;38952;51.090;-1.832;2023-03-25T10:24:38;99430.72;;;14.01;70.11
51849;BME280;38952;51.090;-1.832;2023-03-25T10:27:17;99411.91;;;12.84;73.02
51849;BME280;38952;51.090;-1.832;2023-03-25T10:35:27;99433.44;;;12.63;75.42
51849;BME280;38952;51.090;-1.832;2023-03-25T10:37:59;99453.16;;;13.07;75.67
51849;BME280;38952;51.090;-1.832;2023-03-25T10:40:35;99459.09;;;14.64;72.46
51849;BME280;38952;51.090;-1.832;2023-03-25T10:45:41;99461.09;;;22.80;48.99
51849;BME280;38952;51.090;-1.832;2023-03-25T10:50:39;99485.41;;;26.14;40.61
51849;BME280;38952;51.090;-1.832;2023-03-25T10:53:13;99491.56;;;27.03;37.17
51849;BME280;38952;51.090;-1.832;2023-03-25T10:55:42;99476.69;;;26.59;36.81
51849;BME280;38952;51.090;-1.832;2023-03-25T10:58:15;99479.38;;;23.84;39.12
51849;BME280;38952;51.090;-1.832;2023-03-25T11:00:47;99483.50;;;21.47;41.60
51849;BME280;38952;51.090;-1.832;2023-03-25T11:03:23;99482.56;;;20.02;44.14
51849;BME280;38952;51.090;-1.832;2023-03-25T11:05:51;99469.91;;;17.44;50.38
51849;BME280;38952;51.090;-1.832;2023-03-25T11:08:19;99495.22;;;15.95;55.46
51849;BME280;38952;51.090;-1.832;2023-03-25T11:10:49;99483.72;;;14.69;58.92
51849;BME280;38952;51.090;-1.832;2023-03-25T11:13:22;99489.88;;;15.81;57.41
51849;BME280;38952;51.090;-1.832;2023-03-25T11:15:51;99474.00;;;17.08;56.25
51849;BME280;38952;51.090;-1.832;2023-03-25T11:18:27;99479.66;;;21.71;45.12
51849;BME280;38952;51.090;-1.832;2023-03-25T11:21:02;99491.38;;;24.53;37.67
51849;BME280;38952;51.090;-1.832;2023-03-25T11:23:33;99494.31;;;25.60;36.54
51849;BME280;38952;51.090;-1.832;2023-03-25T11:26:21;99491.19;;;26.82;33.20
51849;BME280;38952;51.090;-1.832;2023-03-25T11:28:53;99494.38;;;27.21;32.17
51849;BME280;38952;51.090;-1.832;2023-03-25T11:31:24;99505.53;;;26.67;31.67
51849;BME280;38952;51.090;-1.832;2023-03-25T11:36:51;99486.00;;;21.52;41.95
51849;BME280;38952;51.090;-1.832;2023-03-25T11:41:50;99478.88;;;22.95;40.23
51849;BME280;38952;51.090;-1.832;2023-03-25T11:44:29;99479.25;;;25.27;35.71
51849;BME280;38952;51.090;-1.832;2023-03-25T11:47:07;99465.16;;;25.69;33.24
51849;BME280;38952;51.090;-1.832;2023-03-25T11:49:56;99486.91;;;24.07;36.14
51849;BME280;38952;51.090;-1.832;2023-03-25T11:52:30;99481.84;;;20.78;40.71
51849;BME280;38952;51.090;-1.832;2023-03-25T11:55:03;99464.09;;;17.37;47.55
51849;BME280;38952;51.090;-1.832;2023-03-25T11:57:37;99476.53;;;15.66;52.85
51849;BME280;38952;51.090;-1.832;2023-03-25T12:02:41;99487.38;;;15.71;56.27
51849;BME280;38952;51.090;-1.832;2023-03-25T12:07:49;99479.31;;;18.27;50.42
51849;BME280;38952;51.090;-1.832;2023-03-25T12:19:02;99492.94;;;25.33;35.36
51849;BME280;38952;51.090;-1.832;2023-03-25T12:22:09;99487.66;;;25.90;34.68
51849;BME280;38952;51.090;-1.832;2023-03-25T12:41:35;99505.06;;;20.42;55.00
51849;BME280;38952;51.090;-1.832;2023-03-25T12:52:54;99508.81;;;18.57;51.33
51849;BME280;38952;51.090;-1.832;2023-03-25T12:56:04;99514.75;;;18.67;52.64
51849;BME280;38952;51.090;-1.832;2023-03-25T12:59:08;99505.88;;;18.41;52.46
51849;BME280;38952;51.090;-1.832;2023-03-25T13:04:38;99510.78;;;17.30;55.28
51849;BME280;38952;51.090;-1.832;2023-03-25T13:07:19;99495.41;;;16.72;54.96
51849;BME280;38952;51.090;-1.832;2023-03-25T13:10:04;99512.28;;;17.18;56.55
51849;BME280;38952;51.090;-1.832;2023-03-25T13:12:42;99517.09;;;17.60;54.52
51849;BME280;38952;51.090;-1.832;2023-03-25T13:21:09;99526.44;;;19.72;51.64
51849;BME280;38952;51.090;-1.832;2023-03-25T13:26:39;99504.41;;;19.39;47.30
51849;BME280;38952;51.090;-1.832;2023-03-25T13:29:43;99517.34;;;19.47;47.19
51849;BME280;38952;51.090;-1.832;2023-03-25T13:32:45;99508.56;;;19.32;45.44
51849;BME280;38952;51.090;-1.832;2023-03-25T13:35:28;99506.50;;;19.29;47.52
51849;BME280;38952;51.090;-1.832;2023-03-25T13:38:00;99527.94;;;19.82;45.76
51849;BME280;38952;51.090;-1.832;2023-03-25T13:40:47;99517.56;;;19.79;43.09
51849;BME280;38952;51.090;-1.832;2023-03-25T13:43:29;99515.38;;;19.60;43.10
51849;BME280;38952;51.090;-1.832;2023-03-25T13:46:04;99519.81;;;19.77;41.57
51849;BME280;38952;51.090;-1.832;2023-03-25T13:51:08;99519.63;;;19.45;43.12
51849;BME280;38952;51.090;-1.832;2023-03-25T13:53:51;99531.88;;;19.81;41.43
51849;BME280;38952;51.090;-1.832;2023-03-25T13:56:46;99523.72;;;20.00;40.28
51849;BME280;38952;51.090;-1.832;2023-03-25T14:04:40;99548.59;;;21.97;36.16
51849;BME280;38952;51.090;-1.832;2023-03-25T14:07:55;99529.69;;;20.71;38.93
51849;BME280;38952;51.090;-1.832;2023-03-25T14:13:37;99521.00;;;20.16;41.91
51849;BME280;38952;51.090;-1.832;2023-03-25T14:16:13;99532.09;;;19.63;39.90
51849;BME280;38952;51.090;-1.832;2023-03-25T14:19:03;99509.59;;;18.57;42.50
51849;BME280;38952;51.090;-1.832;2023-03-25T14:21:33;99506.44;;;17.71;42.02
51849;BME280;38952;51.090;-1.832;2023-03-25T14:26:41;99507.69;;;17.61;44.22
51849;BME280;38952;51.090;-1.832;2023-03-25T14:29:18;99509.28;;;17.62;44.63
51849;BME280;38952;51.090;-1.832;2023-03-25T14:34:47;99521.03;;;16.82;47.44
51849;BME280;38952;51.090;-1.832;2023-03-25T14:37:23;99519.88;;;16.18;48.13
51849;BME280;38952;51.090;-1.832;2023-03-25T14:39:52;99512.50;;;15.61;49.29
51849;BME280;38952;51.090;-1.832;2023-03-25T14:42:24;99516.31;;;15.25;51.27
51849;BME280;38952;51.090;-1.832;2023-03-25T14:44:53;99509.81;;;15.12;51.20
51849;BME280;38952;51.090;-1.832;2023-03-25T14:47:56;99509.47;;;15.13;51.10
51849;BME280;38952;51.090;-1.832;2023-03-25T14:53:03;99502.16;;;15.00;53.08
51849;BME280;38952;51.090;-1.832;2023-03-25T14:55:40;99510.47;;;15.17;52.20
51849;BME280;38952;51.090;-1.832;2023-03-25T14:58:22;99507.03;;;15.03;52.44
51849;BME280;38952;51.090;-1.832;2023-03-25T15:00:56;99496.41;;;14.88;52.65
51849;BME280;38952;51.090;-1.832;2023-03-25T15:03:32;99500.81;;;14.89;53.18
51849;BME280;38952;51.090;-1.832;2023-03-25T15:06:00;99518.06;;;14.80;53.11
51849;BME280;38952;51.090;-1.832;2023-03-25T15:08:34;99513.16;;;14.69;53.83
51849;BME280;38952;51.090;-1.832;2023-03-25T15:11:11;99516.91;;;14.73;54.17
51849;BME280;38952;51.090;-1.832;2023-03-25T15:13:43;99508.63;;;14.64;54.12
51849;BME280;38952;51.090;-1.832;2023-03-25T15:16:27;99497.69;;;14.50;53.63
51849;BME280;38952;51.090;-1.832;2023-03-25T15:18:58;99496.31;;;14.39;54.51
51849;BME280;38952;51.090;-1.832;2023-03-25T15:21:24;99505.25;;;14.44;54.53
51849;BME280;38952;51.090;-1.832;2023-03-25T15:24:00;99497.47;;;14.46;54.21
51849;BME280;38952;51.090;-1.832;2023-03-25T15:26:31;99504.34;;;14.58;49.70
51849;BME280;38952;51.090;-1.832;2023-03-25T15:31:47;99487.13;;;14.66;47.39